sensor_id;sensor_type;location;lat;lon;timestamp;P1;durP1;ratioP1;P2;durP2;ratioP2
2029;SDS011;1020;48.854;8.830;2022-08-19T00:02:25;18.00;;;16.40;;
2029;SDS011;1020;48.854;8.830;2022-08-19T00:04:52;19.77;;;17.90;;
2029;SDS011;1020;48.854;8.830;2022-08-19T00:07:19;17.43;;;15.93;;
2029;SDS011;1020;48.854;8.830;2022-08-19T00:09:46;17.60;;;15.93;;
2029;SDS011;1020;48.854;8.830;2022-08-19T00:12:13;19.27;;;17.27;;
2029;SDS011;1020;48.854;8.830;2022-08-19T00:14:40;18.00;;;16.37;;
2029;SDS011;1020;48.854;8.830;2022-08-19T00:17:08;18.43;;;16.70;;
2029;SDS011;1020;48.854;8.830;2022-08-19T00:19:36;19.80;;;17.90;;
2029;SDS011;1020;48.854;8.830;2022-08-19T00:22:03;20.40;;;18.30;;
2029;SDS011;1020;48.854;8.830;2022-08-19T00:24:31;20.63;;;18.53;;
2029;SDS011;1020;48.854;8.830;2022-08-19T00:26:58;20.10;;;17.93;;
2029;SDS011;1020;48.854;8.830;2022-08-19T00:29:26;19.37;;;17.57;;
2029;SDS011;1020;48.854;8.830;2022-08-19T00:31:54;19.73;;;18.00;;
2029;SDS011;1020;48.854;8.830;2022-08-19T00:34:24;20.47;;;18.47;;
2029;SDS011;1020;48.854;8.830;2022-08-19T00:36:53;21.30;;;19.10;;
2029;SDS011;1020;48.854;8.830;2022-08-19T00:39:21;19.20;;;17.30;;
2029;SDS011;1020;48.854;8.830;2022-08-19T00:41:48;20.20;;;18.27;;
2029;SDS011;1020;48.854;8.830;2022-08-19T00:44:17;19.80;;;17.90;;
2029;SDS011;1020;48.854;8.830;2022-08-19T00:46:46;18.57;;;16.90;;
2029;SDS011;1020;48.854;8.830;2022-08-19T00:49:15;20.40;;;18.23;;
2029;SDS011;1020;48.854;8.830;2022-08-19T00:51:46;19.60;;;17.63;;
2029;SDS011;1020;48.854;8.830;2022-08-19T00:54:19;19.93;;;18.03;;
2029;SDS011;1020;48.854;8.830;2022-08-19T00:56:47;18.27;;;16.57;;
2029;SDS011;1020;48.854;8.830;2022-08-19T00:59:15;19.10;;;17.30;;
2029;SDS011;1020;48.854;8.830;2022-08-19T01:01:44;20.13;;;18.23;;
2029;SDS011;1020;48.854;8.830;2022-08-19T01:04:11;21.10;;;19.20;;
2029;SDS011;1020;48.854;8.830;2022-08-19T01:06:38;20.53;;;18.57;;
2029;SDS011;1020;48.854;8.830;2022-08-19T01:09:08;20.80;;;18.90;;
2029;SDS011;1020;48.854;8.830;2022-08-19T01:11:36;20.87;;;18.93;;
2029;SDS011;1020;48.854;8.830;2022-08-19T01:14:07;21.60;;;19.60;;
2029;SDS011;1020;48.854;8.830;2022-08-19T01:16:35;22.33;;;20.17;;
2029;SDS011;1020;48.854;8.830;2022-08-19T01:19:04;21.53;;;19.53;;
2029;SDS011;1020;48.854;8.830;2022-08-19T01:21:40;19.33;;;17.60;;
2029;SDS011;1020;48.854;8.830;2022-08-19T01:24:14;21.83;;;19.83;;
2029;SDS011;1020;48.854;8.830;2022-08-19T01:26:42;20.77;;;18.77;;
2029;SDS011;1020;48.854;8.830;2022-08-19T01:29:10;22.53;;;20.23;;
2029;SDS011;1020;48.854;8.830;2022-08-19T01:31:37;21.33;;;19.17;;
2029;SDS011;1020;48.854;8.830;2022-08-19T01:34:05;21.80;;;19.60;;
2029;SDS011;1020;48.854;8.830;2022-08-19T01:36:34;20.77;;;18.53;;
2029;SDS011;1020;48.854;8.830;2022-08-19T01:39:08;21.57;;;19.47;;
2029;SDS011;1020;48.854;8.830;2022-08-19T01:41:37;21.80;;;19.90;;
2029;SDS011;1020;48.854;8.830;2022-08-19T01:44:05;21.37;;;19.47;;
2029;SDS011;1020;48.854;8.830;2022-08-19T01:46:34;22.70;;;20.60;;
2029;SDS011;1020;48.854;8.830;2022-08-19T01:49:02;22.30;;;20.20;;
2029;SDS011;1020;48.854;8.830;2022-08-19T01:51:29;21.33;;;19.43;;
2029;SDS011;1020;48.854;8.830;2022-08-19T01:53:56;22.40;;;20.40;;
2029;SDS011;1020;48.854;8.830;2022-08-19T01:56:23;22.30;;;20.20;;
2029;SDS011;1020;48.854;8.830;2022-08-19T01:58:53;22.50;;;20.40;;
2029;SDS011;1020;48.854;8.830;2022-08-19T02:01:23;22.03;;;20.03;;
2029;SDS011;1020;48.854;8.830;2022-08-19T02:03:50;21.27;;;19.17;;
2029;SDS011;1020;48.854;8.830;2022-08-19T02:06:19;22.70;;;20.40;;
2029;SDS011;1020;48.854;8.830;2022-08-19T02:08:46;22.07;;;20.07;;
2029;SDS011;1020;48.854;8.830;2022-08-19T02:11:18;22.60;;;19.80;;
2029;SDS011;1020;48.854;8.830;2022-08-19T02:13:47;21.50;;;19.67;;
2029;SDS011;1020;48.854;8.830;2022-08-19T02:16:16;22.97;;;20.87;;
2029;SDS011;1020;48.854;8.830;2022-08-19T02:18:43;21.50;;;19.57;;
2029;SDS011;1020;48.854;8.830;2022-08-19T02:21:13;23.03;;;20.83;;
2029;SDS011;1020;48.854;8.830;2022-08-19T02:23:40;21.43;;;19.53;;
2029;SDS011;1020;48.854;8.830;2022-08-19T02:26:07;23.47;;;21.27;;
2029;SDS011;1020;48.854;8.830;2022-08-19T02:28:35;22.13;;;20.23;;
2029;SDS011;1020;48.854;8.830;2022-08-19T02:31:02;21.10;;;19.37;;
2029;SDS011;1020;48.854;8.830;2022-08-19T02:33:31;21.83;;;19.83;;
2029;SDS011;1020;48.854;8.830;2022-08-19T02:35:57;24.30;;;22.10;;
2029;SDS011;1020;48.854;8.830;2022-08-19T02:38:24;23.73;;;21.63;;
2029;SDS011;1020;48.854;8.830;2022-08-19T02:40:50;22.57;;;20.57;;
2029;SDS011;1020;48.854;8.830;2022-08-19T02:43:18;22.93;;;21.03;;
2029;SDS011;1020;48.854;8.830;2022-08-19T02:45:46;24.37;;;22.07;;
2029;SDS011;1020;48.854;8.830;2022-08-19T02:48:14;24.73;;;22.30;;
2029;SDS011;1020;48.854;8.830;2022-08-19T02:50:42;25.03;;;22.73;;
2029;SDS011;1020;48.854;8.830;2022-08-19T02:53:09;24.50;;;22.30;;
2029;SDS011;1020;48.854;8.830;2022-08-19T02:55:41;23.87;;;21.77;;
2029;SDS011;1020;48.854;8.830;2022-08-19T02:58:09;26.27;;;23.97;;
2029;SDS011;1020;48.854;8.830;2022-08-19T03:00:40;25.50;;;23.10;;
2029;SDS011;1020;48.854;8.830;2022-08-19T03:03:08;25.50;;;23.23;;
2029;SDS011;1020;48.854;8.830;2022-08-19T03:05:35;25.27;;;23.03;;
2029;SDS011;1020;48.854;8.830;2022-08-19T03:08:03;27.57;;;24.87;;
2029;SDS011;1020;48.854;8.830;2022-08-19T03:10:30;27.00;;;24.47;;
2029;SDS011;1020;48.854;8.830;2022-08-19T03:12:57;27.07;;;24.67;;
2029;SDS011;1020;48.854;8.830;2022-08-19T03:15:24;27.13;;;24.53;;
2029;SDS011;1020;48.854;8.830;2022-08-19T03:17:51;26.97;;;24.47;;
2029;SDS011;1020;48.854;8.830;2022-08-19T03:20:18;26.80;;;24.30;;
2029;SDS011;1020;48.854;8.830;2022-08-19T03:22:44;26.70;;;24.30;;
2029;SDS011;1020;48.854;8.830;2022-08-19T03:25:12;25.77;;;23.33;;
2029;SDS011;1020;48.854;8.830;2022-08-19T03:27:39;27.23;;;24.83;;
2029;SDS011;1020;48.854;8.830;2022-08-19T03:30:06;28.27;;;25.70;;
2029;SDS011;1020;48.854;8.830;2022-08-19T03:32:34;27.20;;;24.70;;
2029;SDS011;1020;48.854;8.830;2022-08-19T03:35:01;27.93;;;25.33;;
2029;SDS011;1020;48.854;8.830;2022-08-19T03:37:28;27.47;;;25.03;;
2029;SDS011;1020;48.854;8.830;2022-08-19T03:39:55;28.27;;;25.57;;
2029;SDS011;1020;48.854;8.830;2022-08-19T03:42:23;25.90;;;23.60;;
2029;SDS011;1020;48.854;8.830;2022-08-19T03:44:51;27.20;;;24.70;;
2029;SDS011;1020;48.854;8.830;2022-08-19T03:47:18;28.10;;;25.70;;
2029;SDS011;1020;48.854;8.830;2022-08-19T03:49:45;27.73;;;25.23;;
2029;SDS011;1020;48.854;8.830;2022-08-19T03:52:12;27.70;;;24.97;;
2029;SDS011;1020;48.854;8.830;2022-08-19T03:54:39;25.83;;;23.57;;
2029;SDS011;1020;48.854;8.830;2022-08-19T03:57:06;26.07;;;23.70;;
2029;SDS011;1020;48.854;8.830;2022-08-19T03:59:35;26.57;;;24.17;;
2029;SDS011;1020;48.854;8.830;2022-08-19T04:02:05;28.03;;;25.20;;
2029;SDS011;1020;48.854;8.830;2022-08-19T04:04:34;27.10;;;24.57;;
2029;SDS011;1020;48.854;8.830;2022-08-19T04:07:02;27.80;;;25.27;;
2029;SDS011;1020;48.854;8.830;2022-08-19T04:09:29;27.80;;;25.20;;
2029;SDS011;1020;48.854;8.830;2022-08-19T04:11:58;28.10;;;25.27;;
2029;SDS011;1020;48.854;8.830;2022-08-19T04:14:26;27.53;;;24.93;;
2029;SDS011;1020;48.854;8.830;2022-08-19T04:16:56;27.67;;;24.80;;
2029;SDS011;1020;48.854;8.830;2022-08-19T04:19:24;31.27;;;27.60;;
2029;SDS011;1020;48.854;8.830;2022-08-19T04:21:52;29.87;;;26.83;;
2029;SDS011;1020;48.854;8.830;2022-08-19T04:24:20;30.03;;;26.93;;
2029;SDS011;1020;48.854;8.830;2022-08-19T04:26:48;28.87;;;26.27;;
2029;SDS011;1020;48.854;8.830;2022-08-19T04:29:16;28.67;;;25.87;;
2029;SDS011;1020;48.854;8.830;2022-08-19T04:31:44;29.40;;;26.60;;
2029;SDS011;1020;48.854;8.830;2022-08-19T04:34:14;28.30;;;25.73;;
2029;SDS011;1020;48.854;8.830;2022-08-19T04:36:43;27.47;;;24.97;;
2029;SDS011;1020;48.854;8.830;2022-08-19T04:39:11;29.53;;;26.90;;
2029;SDS011;1020;48.854;8.830;2022-08-19T04:41:40;30.37;;;27.63;;
2029;SDS011;1020;48.854;8.830;2022-08-19T04:44:24;29.50;;;26.77;;
2029;SDS011;1020;48.854;8.830;2022-08-19T04:46:52;29.47;;;26.77;;
2029;SDS011;1020;48.854;8.830;2022-08-19T04:49:20;28.03;;;25.50;;
2029;SDS011;1020;48.854;8.830;2022-08-19T04:51:50;28.87;;;26.27;;
2029;SDS011;1020;48.854;8.830;2022-08-19T04:54:19;30.27;;;27.40;;
2029;SDS011;1020;48.854;8.830;2022-08-19T04:56:48;29.77;;;26.97;;
2029;SDS011;1020;48.854;8.830;2022-08-19T04:59:16;30.57;;;27.67;;
2029;SDS011;1020;48.854;8.830;2022-08-19T05:01:45;29.07;;;26.20;;
2029;SDS011;1020;48.854;8.830;2022-08-19T05:04:15;29.10;;;26.40;;
2029;SDS011;1020;48.854;8.830;2022-08-19T05:06:45;28.73;;;26.13;;
2029;SDS011;1020;48.854;8.830;2022-08-19T05:09:13;30.13;;;27.10;;
2029;SDS011;1020;48.854;8.830;2022-08-19T05:11:40;29.60;;;26.67;;
2029;SDS011;1020;48.854;8.830;2022-08-19T05:14:08;30.57;;;27.67;;
2029;SDS011;1020;48.854;8.830;2022-08-19T05:16:37;30.30;;;27.37;;
2029;SDS011;1020;48.854;8.830;2022-08-19T05:19:04;28.30;;;25.50;;
2029;SDS011;1020;48.854;8.830;2022-08-19T05:21:50;28.60;;;26.03;;
2029;SDS011;1020;48.854;8.830;2022-08-19T05:24:35;28.90;;;26.20;;
2029;SDS011;1020;48.854;8.830;2022-08-19T05:27:02;29.80;;;27.00;;
2029;SDS011;1020;48.854;8.830;2022-08-19T05:29:31;29.30;;;26.60;;
2029;SDS011;1020;48.854;8.830;2022-08-19T05:31:59;30.73;;;27.80;;
2029;SDS011;1020;48.854;8.830;2022-08-19T05:34:26;29.57;;;26.77;;
2029;SDS011;1020;48.854;8.830;2022-08-19T05:36:55;29.23;;;26.20;;
2029;SDS011;1020;48.854;8.830;2022-08-19T05:39:25;31.30;;;27.93;;
2029;SDS011;1020;48.854;8.830;2022-08-19T05:41:53;27.47;;;24.50;;
2029;SDS011;1020;48.854;8.830;2022-08-19T05:44:22;29.27;;;26.37;;
2029;SDS011;1020;48.854;8.830;2022-08-19T05:46:50;27.27;;;24.70;;
2029;SDS011;1020;48.854;8.830;2022-08-19T05:49:19;30.10;;;27.23;;
2029;SDS011;1020;48.854;8.830;2022-08-19T05:51:47;27.73;;;25.17;;
2029;SDS011;1020;48.854;8.830;2022-08-19T05:54:16;26.80;;;24.43;;
2029;SDS011;1020;48.854;8.830;2022-08-19T05:56:44;29.90;;;27.00;;
2029;SDS011;1020;48.854;8.830;2022-08-19T05:59:12;27.77;;;25.07;;
2029;SDS011;1020;48.854;8.830;2022-08-19T06:01:41;27.00;;;24.50;;
2029;SDS011;1020;48.854;8.830;2022-08-19T06:04:09;26.93;;;24.43;;
2029;SDS011;1020;48.854;8.830;2022-08-19T06:06:36;27.20;;;24.80;;
2029;SDS011;1020;48.854;8.830;2022-08-19T06:09:03;25.97;;;23.47;;
2029;SDS011;1020;48.854;8.830;2022-08-19T06:11:34;28.27;;;25.53;;
2029;SDS011;1020;48.854;8.830;2022-08-19T06:14:04;26.47;;;23.97;;
2029;SDS011;1020;48.854;8.830;2022-08-19T06:16:33;25.77;;;23.47;;
2029;SDS011;1020;48.854;8.830;2022-08-19T06:19:03;26.77;;;24.00;;
2029;SDS011;1020;48.854;8.830;2022-08-19T06:21:32;25.67;;;23.40;;
2029;SDS011;1020;48.854;8.830;2022-08-19T06:24:02;27.13;;;24.33;;
2029;SDS011;1020;48.854;8.830;2022-08-19T06:26:30;26.60;;;24.20;;
2029;SDS011;1020;48.854;8.830;2022-08-19T06:28:58;26.70;;;24.20;;
2029;SDS011;1020;48.854;8.830;2022-08-19T06:31:26;25.83;;;23.33;;
2029;SDS011;1020;48.854;8.830;2022-08-19T06:33:53;27.27;;;24.77;;
2029;SDS011;1020;48.854;8.830;2022-08-19T06:36:21;24.43;;;22.33;;
2029;SDS011;1020;48.854;8.830;2022-08-19T06:38:52;26.73;;;24.23;;
2029;SDS011;1020;48.854;8.830;2022-08-19T06:41:19;26.40;;;24.10;;
2029;SDS011;1020;48.854;8.830;2022-08-19T06:43:45;26.87;;;24.43;;
2029;SDS011;1020;48.854;8.830;2022-08-19T06:46:15;25.33;;;22.93;;
2029;SDS011;1020;48.854;8.830;2022-08-19T06:48:45;25.83;;;23.60;;
2029;SDS011;1020;48.854;8.830;2022-08-19T06:51:12;25.17;;;22.87;;
2029;SDS011;1020;48.854;8.830;2022-08-19T06:53:40;24.83;;;22.63;;
2029;SDS011;1020;48.854;8.830;2022-08-19T06:56:12;24.53;;;22.00;;
2029;SDS011;1020;48.854;8.830;2022-08-19T06:58:39;25.00;;;22.80;;
2029;SDS011;1020;48.854;8.830;2022-08-19T07:01:06;23.23;;;21.23;;
2029;SDS011;1020;48.854;8.830;2022-08-19T07:03:36;24.57;;;22.43;;
2029;SDS011;1020;48.854;8.830;2022-08-19T07:06:04;24.40;;;21.93;;
2029;SDS011;1020;48.854;8.830;2022-08-19T07:08:31;23.80;;;21.80;;
2029;SDS011;1020;48.854;8.830;2022-08-19T07:10:58;25.13;;;22.90;;
2029;SDS011;1020;48.854;8.830;2022-08-19T07:13:26;23.60;;;21.50;;
2029;SDS011;1020;48.854;8.830;2022-08-19T07:15:52;23.00;;;21.00;;
2029;SDS011;1020;48.854;8.830;2022-08-19T07:18:19;23.03;;;20.80;;
2029;SDS011;1020;48.854;8.830;2022-08-19T07:20:47;23.23;;;21.23;;
2029;SDS011;1020;48.854;8.830;2022-08-19T07:23:14;24.33;;;21.73;;
2029;SDS011;1020;48.854;8.830;2022-08-19T07:25:41;22.47;;;20.50;;
2029;SDS011;1020;48.854;8.830;2022-08-19T07:28:08;22.27;;;20.23;;
2029;SDS011;1020;48.854;8.830;2022-08-19T07:30:38;21.90;;;19.90;;
2029;SDS011;1020;48.854;8.830;2022-08-19T07:33:05;21.83;;;19.93;;
2029;SDS011;1020;48.854;8.830;2022-08-19T07:35:32;22.63;;;20.50;;
2029;SDS011;1020;48.854;8.830;2022-08-19T07:38:00;22.10;;;20.30;;
2029;SDS011;1020;48.854;8.830;2022-08-19T07:40:28;21.33;;;19.47;;
2029;SDS011;1020;48.854;8.830;2022-08-19T07:42:56;20.97;;;19.27;;
2029;SDS011;1020;48.854;8.830;2022-08-19T07:45:23;21.73;;;19.93;;
2029;SDS011;1020;48.854;8.830;2022-08-19T07:47:50;19.37;;;17.87;;
2029;SDS011;1020;48.854;8.830;2022-08-19T07:50:18;21.10;;;19.10;;
2029;SDS011;1020;48.854;8.830;2022-08-19T07:52:46;21.17;;;19.37;;
2029;SDS011;1020;48.854;8.830;2022-08-19T07:55:16;20.93;;;18.93;;
2029;SDS011;1020;48.854;8.830;2022-08-19T07:57:44;20.07;;;18.47;;
2029;SDS011;1020;48.854;8.830;2022-08-19T08:00:11;19.60;;;17.80;;
2029;SDS011;1020;48.854;8.830;2022-08-19T08:02:39;18.97;;;17.37;;
2029;SDS011;1020;48.854;8.830;2022-08-19T08:05:07;21.47;;;19.67;;
2029;SDS011;1020;48.854;8.830;2022-08-19T08:07:52;19.77;;;18.07;;
2029;SDS011;1020;48.854;8.830;2022-08-19T08:10:37;19.93;;;18.17;;
2029;SDS011;1020;48.854;8.830;2022-08-19T08:13:04;18.33;;;16.90;;
2029;SDS011;1020;48.854;8.830;2022-08-19T08:15:31;18.73;;;17.23;;
2029;SDS011;1020;48.854;8.830;2022-08-19T08:17:58;17.77;;;16.37;;
2029;SDS011;1020;48.854;8.830;2022-08-19T08:20:25;17.47;;;16.10;;
2029;SDS011;1020;48.854;8.830;2022-08-19T08:22:51;17.53;;;16.13;;
2029;SDS011;1020;48.854;8.830;2022-08-19T08:25:36;17.77;;;16.17;;
2029;SDS011;1020;48.854;8.830;2022-08-19T08:28:04;17.53;;;16.20;;
2029;SDS011;1020;48.854;8.830;2022-08-19T08:30:34;17.97;;;16.23;;
2029;SDS011;1020;48.854;8.830;2022-08-19T08:33:02;17.10;;;15.70;;
2029;SDS011;1020;48.854;8.830;2022-08-19T08:35:30;18.37;;;16.57;;
2029;SDS011;1020;48.854;8.830;2022-08-19T08:37:56;16.73;;;15.47;;
2029;SDS011;1020;48.854;8.830;2022-08-19T08:40:26;16.90;;;15.50;;
2029;SDS011;1020;48.854;8.830;2022-08-19T08:42:57;17.30;;;15.87;;
2029;SDS011;1020;48.854;8.830;2022-08-19T08:45:30;17.40;;;15.83;;
2029;SDS011;1020;48.854;8.830;2022-08-19T08:48:00;18.63;;;17.10;;
2029;SDS011;1020;48.854;8.830;2022-08-19T08:50:37;17.70;;;16.03;;
2029;SDS011;1020;48.854;8.830;2022-08-19T08:53:09;16.70;;;15.17;;
2029;SDS011;1020;48.854;8.830;2022-08-19T08:55:37;17.37;;;15.97;;
2029;SDS011;1020;48.854;8.830;2022-08-19T08:58:09;18.03;;;16.33;;
2029;SDS011;1020;48.854;8.830;2022-08-19T09:00:43;16.40;;;14.97;;
2029;SDS011;1020;48.854;8.830;2022-08-19T09:03:16;17.57;;;16.17;;
2029;SDS011;1020;48.854;8.830;2022-08-19T09:05:49;18.53;;;16.93;;
2029;SDS011;1020;48.854;8.830;2022-08-19T09:08:27;16.73;;;15.43;;
2029;SDS011;1020;48.854;8.830;2022-08-19T09:11:03;16.63;;;15.13;;
2029;SDS011;1020;48.854;8.830;2022-08-19T09:13:36;18.23;;;16.17;;
2029;SDS011;1020;48.854;8.830;2022-08-19T09:16:12;16.00;;;14.80;;
2029;SDS011;1020;48.854;8.830;2022-08-19T09:18:43;16.70;;;15.40;;
2029;SDS011;1020;48.854;8.830;2022-08-19T09:21:12;17.00;;;15.70;;
2029;SDS011;1020;48.854;8.830;2022-08-19T09:23:40;15.20;;;13.87;;
2029;SDS011;1020;48.854;8.830;2022-08-19T09:26:08;14.60;;;13.60;;
2029;SDS011;1020;48.854;8.830;2022-08-19T09:28:39;15.60;;;14.40;;
2029;SDS011;1020;48.854;8.830;2022-08-19T09:31:08;14.97;;;13.87;;
2029;SDS011;1020;48.854;8.830;2022-08-19T09:33:35;15.57;;;14.37;;
2029;SDS011;1020;48.854;8.830;2022-08-19T09:36:04;14.47;;;13.37;;
2029;SDS011;1020;48.854;8.830;2022-08-19T09:38:32;15.23;;;14.00;;
2029;SDS011;1020;48.854;8.830;2022-08-19T09:41:01;16.63;;;15.00;;
2029;SDS011;1020;48.854;8.830;2022-08-19T09:43:30;14.87;;;13.63;;
2029;SDS011;1020;48.854;8.830;2022-08-19T09:45:59;13.77;;;12.67;;
2029;SDS011;1020;48.854;8.830;2022-08-19T09:48:26;13.97;;;12.97;;
2029;SDS011;1020;48.854;8.830;2022-08-19T09:50:53;13.97;;;12.87;;
2029;SDS011;1020;48.854;8.830;2022-08-19T09:53:19;13.40;;;12.40;;
2029;SDS011;1020;48.854;8.830;2022-08-19T09:55:47;13.30;;;11.33;;
2029;SDS011;1020;48.854;8.830;2022-08-19T09:58:14;13.00;;;11.90;;
2029;SDS011;1020;48.854;8.830;2022-08-19T10:00:41;11.90;;;11.00;;
2029;SDS011;1020;48.854;8.830;2022-08-19T10:03:09;11.90;;;10.90;;
2029;SDS011;1020;48.854;8.830;2022-08-19T10:05:36;13.33;;;12.00;;
2029;SDS011;1020;48.854;8.830;2022-08-19T10:08:16;12.20;;;11.30;;
2029;SDS011;1020;48.854;8.830;2022-08-19T10:10:44;12.47;;;11.37;;
2029;SDS011;1020;48.854;8.830;2022-08-19T10:13:11;11.87;;;10.87;;
2029;SDS011;1020;48.854;8.830;2022-08-19T10:15:38;12.50;;;11.50;;
2029;SDS011;1020;48.854;8.830;2022-08-19T10:18:05;13.50;;;12.30;;
2029;SDS011;1020;48.854;8.830;2022-08-19T10:20:34;13.73;;;12.67;;
2029;SDS011;1020;48.854;8.830;2022-08-19T10:23:02;12.80;;;11.70;;
2029;SDS011;1020;48.854;8.830;2022-08-19T10:25:29;12.60;;;11.60;;
2029;SDS011;1020;48.854;8.830;2022-08-19T10:27:58;13.27;;;12.17;;
2029;SDS011;1020;48.854;8.830;2022-08-19T10:30:25;13.43;;;12.37;;
2029;SDS011;1020;48.854;8.830;2022-08-19T10:32:52;13.23;;;12.13;;
2029;SDS011;1020;48.854;8.830;2022-08-19T10:35:19;12.20;;;11.20;;
2029;SDS011;1020;48.854;8.830;2022-08-19T10:37:47;12.80;;;11.60;;
2029;SDS011;1020;48.854;8.830;2022-08-19T10:40:14;11.57;;;10.73;;
2029;SDS011;1020;48.854;8.830;2022-08-19T10:42:41;10.60;;;9.73;;
2029;SDS011;1020;48.854;8.830;2022-08-19T10:45:08;10.67;;;9.70;;
2029;SDS011;1020;48.854;8.830;2022-08-19T10:47:36;10.00;;;9.30;;
2029;SDS011;1020;48.854;8.830;2022-08-19T10:50:03;9.53;;;8.83;;
2029;SDS011;1020;48.854;8.830;2022-08-19T10:52:49;10.63;;;9.73;;
2029;SDS011;1020;48.854;8.830;2022-08-19T10:55:17;10.93;;;10.13;;
2029;SDS011;1020;48.854;8.830;2022-08-19T10:58:02;10.20;;;9.50;;
2029;SDS011;1020;48.854;8.830;2022-08-19T11:00:29;9.80;;;9.03;;
2029;SDS011;1020;48.854;8.830;2022-08-19T11:02:57;9.40;;;8.70;;
2029;SDS011;1020;48.854;8.830;2022-08-19T11:05:24;9.70;;;9.00;;
2029;SDS011;1020;48.854;8.830;2022-08-19T11:07:52;9.40;;;8.60;;
2029;SDS011;1020;48.854;8.830;2022-08-19T11:10:19;8.70;;;8.00;;
2029;SDS011;1020;48.854;8.830;2022-08-19T11:12:48;8.17;;;7.57;;
2029;SDS011;1020;48.854;8.830;2022-08-19T11:15:18;8.20;;;7.60;;
2029;SDS011;1020;48.854;8.830;2022-08-19T11:17:44;8.67;;;8.07;;
2029;SDS011;1020;48.854;8.830;2022-08-19T11:20:12;6.53;;;5.93;;
2029;SDS011;1020;48.854;8.830;2022-08-19T11:22:40;7.40;;;6.90;;
2029;SDS011;1020;48.854;8.830;2022-08-19T11:25:09;7.53;;;7.03;;
2029;SDS011;1020;48.854;8.830;2022-08-19T11:27:37;7.27;;;6.57;;
2029;SDS011;1020;48.854;8.830;2022-08-19T11:30:07;6.73;;;6.23;;
2029;SDS011;1020;48.854;8.830;2022-08-19T11:32:34;6.60;;;6.10;;
2029;SDS011;1020;48.854;8.830;2022-08-19T11:35:01;6.63;;;6.03;;
2029;SDS011;1020;48.854;8.830;2022-08-19T11:37:28;6.90;;;6.40;;
2029;SDS011;1020;48.854;8.830;2022-08-19T11:39:55;8.03;;;7.43;;
2029;SDS011;1020;48.854;8.830;2022-08-19T11:42:23;8.63;;;7.83;;
2029;SDS011;1020;48.854;8.830;2022-08-19T11:45:07;7.20;;;6.80;;
2029;SDS011;1020;48.854;8.830;2022-08-19T11:47:35;7.47;;;6.87;;
2029;SDS011;1020;48.854;8.830;2022-08-19T11:50:03;6.13;;;5.63;;
2029;SDS011;1020;48.854;8.830;2022-08-19T11:52:31;5.87;;;5.37;;
2029;SDS011;1020;48.854;8.830;2022-08-19T11:54:58;5.87;;;5.50;;
2029;SDS011;1020;48.854;8.830;2022-08-19T11:57:26;6.50;;;6.10;;
2029;SDS011;1020;48.854;8.830;2022-08-19T11:59:52;7.13;;;6.60;;
2029;SDS011;1020;48.854;8.830;2022-08-19T12:02:19;6.30;;;5.90;;
2029;SDS011;1020;48.854;8.830;2022-08-19T12:04:46;6.00;;;5.50;;
2029;SDS011;1020;48.854;8.830;2022-08-19T12:07:13;6.00;;;5.50;;
2029;SDS011;1020;48.854;8.830;2022-08-19T12:09:40;6.50;;;5.90;;
2029;SDS011;1020;48.854;8.830;2022-08-19T12:12:07;7.90;;;7.10;;
2029;SDS011;1020;48.854;8.830;2022-08-19T12:14:36;7.03;;;6.60;;
2029;SDS011;1020;48.854;8.830;2022-08-19T12:17:03;7.27;;;6.77;;
2029;SDS011;1020;48.854;8.830;2022-08-19T12:19:33;7.60;;;6.40;;
2029;SDS011;1020;48.854;8.830;2022-08-19T12:22:01;7.60;;;7.20;;
2029;SDS011;1020;48.854;8.830;2022-08-19T12:24:30;7.47;;;6.90;;
2029;SDS011;1020;48.854;8.830;2022-08-19T12:26:57;6.60;;;6.10;;
2029;SDS011;1020;48.854;8.830;2022-08-19T12:29:26;7.67;;;7.17;;
2029;SDS011;1020;48.854;8.830;2022-08-19T12:31:55;6.90;;;6.30;;
2029;SDS011;1020;48.854;8.830;2022-08-19T12:34:27;7.47;;;6.97;;
2029;SDS011;1020;48.854;8.830;2022-08-19T12:36:55;6.90;;;6.60;;
2029;SDS011;1020;48.854;8.830;2022-08-19T12:39:22;6.83;;;6.17;;
2029;SDS011;1020;48.854;8.830;2022-08-19T12:41:49;6.90;;;6.30;;
2029;SDS011;1020;48.854;8.830;2022-08-19T12:44:16;7.20;;;6.70;;
2029;SDS011;1020;48.854;8.830;2022-08-19T12:46:43;7.03;;;6.40;;
2029;SDS011;1020;48.854;8.830;2022-08-19T12:49:11;7.37;;;6.67;;
2029;SDS011;1020;48.854;8.830;2022-08-19T12:51:38;6.30;;;5.90;;
2029;SDS011;1020;48.854;8.830;2022-08-19T12:54:05;6.83;;;6.33;;
2029;SDS011;1020;48.854;8.830;2022-08-19T12:56:31;6.23;;;5.73;;
2029;SDS011;1020;48.854;8.830;2022-08-19T12:59:00;6.70;;;6.13;;
2029;SDS011;1020;48.854;8.830;2022-08-19T13:01:28;5.47;;;5.17;;
2029;SDS011;1020;48.854;8.830;2022-08-19T13:03:55;5.83;;;5.47;;
2029;SDS011;1020;48.854;8.830;2022-08-19T13:06:23;6.20;;;5.80;;
2029;SDS011;1020;48.854;8.830;2022-08-19T13:08:50;6.37;;;5.97;;
2029;SDS011;1020;48.854;8.830;2022-08-19T13:11:18;5.60;;;5.30;;
2029;SDS011;1020;48.854;8.830;2022-08-19T13:13:49;6.53;;;6.03;;
2029;SDS011;1020;48.854;8.830;2022-08-19T13:16:18;6.67;;;5.97;;
2029;SDS011;1020;48.854;8.830;2022-08-19T13:18:47;7.50;;;7.00;;
2029;SDS011;1020;48.854;8.830;2022-08-19T13:21:17;7.30;;;6.90;;
2029;SDS011;1020;48.854;8.830;2022-08-19T13:23:47;8.10;;;7.53;;
2029;SDS011;1020;48.854;8.830;2022-08-19T13:26:14;8.13;;;7.70;;
2029;SDS011;1020;48.854;8.830;2022-08-19T13:28:42;8.13;;;7.40;;
2029;SDS011;1020;48.854;8.830;2022-08-19T13:31:28;7.83;;;7.40;;
2029;SDS011;1020;48.854;8.830;2022-08-19T13:34:14;8.90;;;8.30;;
2029;SDS011;1020;48.854;8.830;2022-08-19T13:36:42;9.03;;;8.40;;
2029;SDS011;1020;48.854;8.830;2022-08-19T13:39:11;9.07;;;8.37;;
2029;SDS011;1020;48.854;8.830;2022-08-19T13:41:42;8.87;;;8.17;;
2029;SDS011;1020;48.854;8.830;2022-08-19T13:44:12;8.80;;;8.07;;
2029;SDS011;1020;48.854;8.830;2022-08-19T13:46:39;8.70;;;8.00;;
2029;SDS011;1020;48.854;8.830;2022-08-19T13:49:09;9.03;;;8.07;;
2029;SDS011;1020;48.854;8.830;2022-08-19T13:51:36;8.33;;;7.73;;
2029;SDS011;1020;48.854;8.830;2022-08-19T13:54:04;8.63;;;8.03;;
2029;SDS011;1020;48.854;8.830;2022-08-19T13:56:32;8.60;;;8.00;;
2029;SDS011;1020;48.854;8.830;2022-08-19T13:58:59;7.93;;;7.47;;
2029;SDS011;1020;48.854;8.830;2022-08-19T14:01:26;7.37;;;6.93;;
2029;SDS011;1020;48.854;8.830;2022-08-19T14:03:53;7.47;;;7.07;;
2029;SDS011;1020;48.854;8.830;2022-08-19T14:06:20;7.57;;;7.00;;
2029;SDS011;1020;48.854;8.830;2022-08-19T14:08:47;8.13;;;7.63;;
2029;SDS011;1020;48.854;8.830;2022-08-19T14:11:14;7.90;;;7.40;;
2029;SDS011;1020;48.854;8.830;2022-08-19T14:13:43;8.20;;;7.53;;
2029;SDS011;1020;48.854;8.830;2022-08-19T14:16:10;8.27;;;7.70;;
2029;SDS011;1020;48.854;8.830;2022-08-19T14:18:39;8.57;;;7.83;;
2029;SDS011;1020;48.854;8.830;2022-08-19T14:21:06;8.13;;;7.63;;
2029;SDS011;1020;48.854;8.830;2022-08-19T14:23:34;8.93;;;8.33;;
2029;SDS011;1020;48.854;8.830;2022-08-19T14:26:05;8.53;;;7.93;;
2029;SDS011;1020;48.854;8.830;2022-08-19T14:28:33;8.50;;;8.00;;
2029;SDS011;1020;48.854;8.830;2022-08-19T14:31:01;8.03;;;7.53;;
2029;SDS011;1020;48.854;8.830;2022-08-19T14:33:28;8.93;;;8.40;;
2029;SDS011;1020;48.854;8.830;2022-08-19T14:35:54;9.03;;;8.43;;
2029;SDS011;1020;48.854;8.830;2022-08-19T14:38:21;9.10;;;8.40;;
2029;SDS011;1020;48.854;8.830;2022-08-19T14:40:48;8.20;;;7.43;;
2029;SDS011;1020;48.854;8.830;2022-08-19T14:43:16;7.50;;;7.03;;
2029;SDS011;1020;48.854;8.830;2022-08-19T14:45:44;7.70;;;7.20;;
2029;SDS011;1020;48.854;8.830;2022-08-19T14:48:12;7.43;;;6.97;;
2029;SDS011;1020;48.854;8.830;2022-08-19T14:50:39;7.67;;;7.17;;
2029;SDS011;1020;48.854;8.830;2022-08-19T14:53:07;7.30;;;6.70;;
2029;SDS011;1020;48.854;8.830;2022-08-19T14:55:34;7.13;;;6.73;;
2029;SDS011;1020;48.854;8.830;2022-08-19T14:58:01;7.63;;;7.17;;
2029;SDS011;1020;48.854;8.830;2022-08-19T15:00:28;6.67;;;6.27;;
2029;SDS011;1020;48.854;8.830;2022-08-19T15:02:55;6.67;;;6.30;;
2029;SDS011;1020;48.854;8.830;2022-08-19T15:05:25;6.67;;;6.10;;